Time;durP1;ratioP1;P1;durP2;ratioP2;P2;SDS_P1;SDS_P2;PMS_P1;PMS_P2;Temp;Humidity;BMP_temperature;BMP_pressure;BME280_temperature;BME280_humidity;BME280_pressure;Samples;Min_cycle;Max_cycle;Signal;HPM_P1;HPM_P2
2023/11/30 06:00:43;;;;;;;11.77;6.90;;;1.70;80.00;;;;;;4794585;23;19929;-80
2023/11/30 06:02:44;;;;;;;12.65;6.95;;;1.70;80.10;;;;;;4132448;28;20567;-81
2023/11/30 06:04:51;;;;;;;13.45;7.63;;;1.70;80.00;;;;;;4132462;28;20046;-80
2023/11/30 06:06:53;;;;;;;10.95;6.88;;;1.70;80.10;;;;;;4116057;28;20526;-80
2023/11/30 06:08:55;;;;;;;13.15;7.15;;;1.70;80.10;;;;;;4100234;29;20051;-79
2023/11/30 06:10:57;;;;;;;10.35;6.85;;;1.70;80.20;;;;;;4100424;28;20051;-80
2023/11/30 06:12:59;;;;;;;10.35;6.57;;;1.70;80.10;;;;;;4116383;28;20047;-81
2023/11/30 06:15:01;;;;;;;10.70;6.85;;;1.70;80.00;;;;;;4116264;28;20468;-79
2023/11/30 06:17:04;;;;;;;10.05;6.93;;;1.70;80.00;;;;;;4116317;28;20082;-78
2023/11/30 06:19:06;;;;;;;14.23;7.15;;;1.70;80.10;;;;;;4116395;28;20046;-79
2023/11/30 06:21:09;;;;;;;10.50;7.25;;;1.70;80.10;;;;;;4116388;28;20043;-83
2023/11/30 06:23:11;;;;;;;10.27;6.68;;;1.70;80.20;;;;;;4116396;28;20047;-80
2023/11/30 06:25:13;;;;;;;12.45;7.30;;;1.70;80.20;;;;;;4116299;28;20047;-79
2023/11/30 06:27:15;;;;;;;11.05;7.25;;;1.70;80.70;;;;;;4116176;28;20114;-79
2023/11/30 06:29:16;;;;;;;11.57;7.30;;;1.70;80.00;;;;;;4098959;28;20051;-80
2023/11/30 06:31:18;;;;;;;12.00;7.45;;;1.70;80.20;;;;;;4116218;28;20043;-79
2023/11/30 06:33:21;;;;;;;16.30;8.00;;;1.70;80.40;;;;;;4116338;28;20051;-81
2023/11/30 06:35:23;;;;;;;12.18;8.02;;;1.70;80.30;;;;;;4116183;28;20507;-80
2023/11/30 06:37:24;;;;;;;12.82;8.05;;;1.70;80.20;;;;;;4116205;28;20050;-82
2023/11/30 06:39:26;;;;;;;14.88;8.15;;;1.70;80.30;;;;;;4116100;28;20141;-80
2023/11/30 06:41:28;;;;;;;13.00;7.93;;;1.70;80.30;;;;;;4116371;28;20573;-82
2023/11/30 06:43:30;;;;;;;14.38;7.80;;;1.70;80.30;;;;;;4116217;28;20110;-81
2023/11/30 06:45:32;;;;;;;11.85;7.50;;;1.60;80.50;;;;;;4116108;28;20123;-81
2023/11/30 06:47:33;;;;;;;13.30;7.93;;;1.70;80.90;;;;;;4116250;28;20105;-79
2023/11/30 06:49:36;;;;;;;9.90;6.95;;;1.70;80.60;;;;;;4116164;28;20129;-80
2023/11/30 06:51:37;;;;;;;11.45;7.22;;;1.80;80.50;;;;;;4116079;28;20415;-79
2023/11/30 06:53:38;;;;;;;11.07;6.43;;;1.80;80.20;;;;;;4125591;28;20472;-80
2023/11/30 06:55:40;;;;;;;10.85;6.45;;;1.80;79.80;;;;;;4134908;28;20101;-80
2023/11/30 06:57:42;;;;;;;10.45;5.95;;;1.80;79.70;;;;;;4135424;28;20079;-81
2023/11/30 06:59:44;;;;;;;11.30;7.10;;;1.80;79.30;;;;;;4134427;28;20050;-79
2023/11/30 07:01:46;;;;;;;10.25;5.80;;;1.80;79.80;;;;;;4118795;28;20066;-80
2023/11/30 07:03:48;;;;;;;10.68;5.60;;;1.70;79.30;;;;;;4119234;28;20126;-80
2023/11/30 07:05:51;;;;;;;10.90;6.00;;;1.70;79.30;;;;;;4119157;28;20097;-80
2023/11/30 07:07:53;;;;;;;11.27;6.90;;;1.80;79.20;;;;;;4118941;28;20121;-80
2023/11/30 07:09:54;;;;;;;13.80;7.97;;;1.80;79.70;;;;;;4119201;28;20047;-80
2023/11/30 07:11:56;;;;;;;11.05;7.38;;;1.70;80.10;;;;;;4118985;28;20043;-79
2023/11/30 07:13:59;;;;;;;13.73;7.97;;;1.70;80.00;;;;;;4118863;28;20105;-80
2023/11/30 07:16:01;;;;;;;12.23;7.68;;;1.70;80.40;;;;;;4118962;28;20500;-79
2023/11/30 07:18:03;;;;;;;11.95;7.25;;;1.70;80.40;;;;;;4118982;28;20042;-82
2023/11/30 07:20:07;;;;;;;10.95;7.05;;;1.70;80.40;;;;;;4118784;28;20114;-81
2023/11/30 07:22:11;;;;;;;13.65;8.30;;;1.80;81.00;;;;;;4118720;28;20493;-81
2023/11/30 07:24:13;;;;;;;11.48;7.40;;;1.80;80.30;;;;;;4118905;28;20535;-81
2023/11/30 07:26:16;;;;;;;10.27;6.95;;;1.70;80.30;;;;;;4118720;28;20480;-81
2023/11/30 07:28:19;;;;;;;11.60;7.03;;;1.80;80.20;;;;;;4118547;28;20062;-81
2023/11/30 07:30:21;;;;;;;13.55;7.13;;;1.80;80.60;;;;;;4118423;28;20536;-81
2023/11/30 07:32:23;;;;;;;12.23;7.10;;;1.80;80.60;;;;;;4118624;28;20051;-81
2023/11/30 07:34:25;;;;;;;12.02;7.78;;;1.80;80.40;;;;;;4118752;28;20388;-81
2023/11/30 07:36:27;;;;;;;12.75;8.43;;;1.80;80.30;;;;;;4120401;28;20078;-82
2023/11/30 07:38:30;;;;;;;13.82;8.23;;;1.90;80.30;;;;;;4121782;28;20109;-81
2023/11/30 07:40:32;;;;;;;13.18;7.82;;;1.90;80.30;;;;;;4121402;28;20121;-80
2023/11/30 07:42:34;;;;;;;15.30;8.07;;;1.80;80.50;;;;;;4121322;28;20133;-80
2023/11/30 07:44:36;;;;;;;12.63;8.02;;;1.80;80.30;;;;;;4120897;28;20489;-82
2023/11/30 07:46:37;;;;;;;13.65;8.40;;;1.80;80.50;;;;;;4120684;28;20089;-80
2023/11/30 07:48:39;;;;;;;13.00;8.07;;;1.80;80.30;;;;;;4120395;28;20459;-80
2023/11/30 07:50:42;;;;;;;14.10;8.02;;;1.80;80.20;;;;;;4118804;28;20057;-80
2023/11/30 07:52:43;;;;;;;14.32;8.75;;;1.80;80.40;;;;;;4118380;28;20055;-81
2023/11/30 07:54:47;;;;;;;11.02;7.43;;;1.80;80.40;;;;;;4118761;28;20058;-79
2023/11/30 07:56:49;;;;;;;13.48;7.82;;;1.80;80.90;;;;;;4118509;28;20054;-80
2023/11/30 07:58:51;;;;;;;12.88;7.95;;;1.80;80.80;;;;;;4118691;28;20130;-80
2023/11/30 08:00:53;;;;;;;12.90;7.90;;;1.90;80.60;;;;;;4108399;28;20090;-81
2023/11/30 08:02:55;;;;;;;13.02;7.72;;;1.90;80.60;;;;;;4102446;29;20047;-81
2023/11/30 08:04:57;;;;;;;14.65;8.18;;;1.90;80.70;;;;;;4103527;28;20090;-80
2023/11/30 08:06:59;;;;;;;14.18;8.10;;;1.90;80.90;;;;;;4102531;29;20047;-81
2023/11/30 08:09:01;;;;;;;14.00;8.30;;;1.90;80.90;;;;;;4103159;29;20051;-81
2023/11/30 08:11:04;;;;;;;15.43;9.07;;;1.90;81.00;;;;;;4104024;29;20055;-81
2023/11/30 08:13:06;;;;;;;16.63;8.73;;;1.90;80.70;;;;;;4104219;29;20051;-82
2023/11/30 08:15:09;;;;;;;14.63;8.52;;;1.90;80.70;;;;;;4103084;29;20055;-81
2023/11/30 08:17:11;;;;;;;13.95;8.52;;;1.90;80.90;;;;;;4103479;29;20079;-81
2023/11/30 08:19:13;;;;;;;15.85;8.60;;;1.90;80.70;;;;;;4102805;29;20110;-81
2023/11/30 08:21:14;;;;;;;16.98;9.02;;;1.90;81.00;;;;;;4102872;29;20047;-81
2023/11/30 08:23:17;;;;;;;15.50;9.32;;;1.80;81.20;;;;;;4102963;29;20083;-81
2023/11/30 08:25:19;;;;;;;15.55;9.13;;;1.80;81.40;;;;;;4102423;29;20058;-81
2023/11/30 08:27:22;;;;;;;15.70;9.32;;;1.80;81.80;;;;;;4101970;29;20098;-80
2023/11/30 08:29:24;;;;;;;17.33;10.40;;;1.80;81.70;;;;;;4102437;29;20138;-80
2023/11/30 08:31:27;;;;;;;19.92;10.55;;;1.90;81.50;;;;;;4102189;29;20477;-80
2023/11/30 08:33:28;;;;;;;18.88;10.80;;;1.90;81.40;;;;;;4101898;29;20077;-81
2023/11/30 08:35:30;;;;;;;16.10;9.15;;;1.90;81.20;;;;;;4101807;29;20154;-80
2023/11/30 08:37:31;;;;;;;16.33;10.23;;;1.90;81.30;;;;;;4101766;29;20051;-80
2023/11/30 08:39:32;;;;;;;18.45;10.73;;;1.90;81.40;;;;;;4102473;28;20121;-78
2023/11/30 08:41:36;;;;;;;15.05;10.15;;;1.90;81.80;;;;;;4115589;28;20051;-78
2023/11/30 08:43:39;;;;;;;19.83;11.23;;;1.90;81.70;;;;;;4115752;28;20057;-79
2023/11/30 08:45:41;;;;;;;18.30;10.18;;;1.90;81.70;;;;;;4115763;28;20061;-81
2023/11/30 08:47:43;;;;;;;17.90;10.07;;;1.90;81.80;;;;;;4115656;28;20054;-80
2023/11/30 08:49:45;;;;;;;21.52;12.50;;;2.00;82.10;;;;;;4116881;28;20118;-80
2023/11/30 08:51:46;;;;;;;20.08;11.93;;;1.90;82.20;;;;;;4116045;28;20055;-79
2023/11/30 08:53:47;;;;;;;15.98;10.32;;;2.00;82.50;;;;;;4115657;28;20113;-79
2023/11/30 08:55:49;;;;;;;16.95;10.45;;;2.00;82.60;;;;;;4117052;28;20515;-79
2023/11/30 08:57:51;;;;;;;15.43;9.55;;;1.90;82.60;;;;;;4121651;28;20047;-78
2023/11/30 08:59:55;;;;;;;17.48;10.23;;;2.00;83.00;;;;;;4121581;28;20070;-79
2023/11/30 09:01:55;;;;;;;15.82;10.27;;;2.00;83.00;;;;;;4108114;29;20063;-79
2023/11/30 09:04:03;;;;;;;17.15;10.30;;;2.00;82.80;;;;;;4104473;29;20053;-80
2023/11/30 09:06:05;;;;;;;16.48;10.70;;;2.00;83.10;;;;;;4107124;29;20047;-80
2023/11/30 09:08:07;;;;;;;15.95;10.40;;;2.00;83.20;;;;;;4091869;29;20067;-80
2023/11/30 09:10:10;;;;;;;19.52;10.15;;;2.00;82.80;;;;;;4115520;28;20500;-78
2023/11/30 09:12:11;;;;;;;17.42;10.05;;;2.10;82.50;;;;;;4122363;28;20105;-79
2023/11/30 09:14:13;;;;;;;15.93;9.60;;;2.10;82.50;;;;;;4121052;28;20054;-81
2023/11/30 09:16:16;;;;;;;15.20;9.88;;;2.10;82.30;;;;;;4123809;28;20082;-78
2023/11/30 09:18:18;;;;;;;16.05;10.02;;;2.20;82.20;;;;;;4122121;28;20440;-79
2023/11/30 09:20:19;;;;;;;17.35;10.07;;;2.30;82.20;;;;;;4118754;28;20050;-79
2023/11/30 09:22:21;;;;;;;17.98;10.27;;;2.30;82.10;;;;;;4115386;28;20444;-79
2023/11/30 09:24:23;;;;;;;16.70;10.45;;;2.30;82.20;;;;;;4115019;28;20062;-78
2023/11/30 09:26:25;;;;;;;16.00;9.65;;;2.30;82.30;;;;;;4115080;28;20106;-78
2023/11/30 09:28:27;;;;;;;16.13;10.02;;;2.30;82.20;;;;;;4097852;29;20481;-79
2023/11/30 09:30:29;;;;;;;18.25;10.23;;;2.30;82.30;;;;;;4114607;28;20062;-76
2023/11/30 09:32:32;;;;;;;17.52;10.43;;;2.30;82.30;;;;;;4114880;28;20051;-77
2023/11/30 09:34:33;;;;;;;19.55;10.23;;;2.30;82.50;;;;;;4114803;28;20113;-78
2023/11/30 09:36:36;;;;;;;17.10;10.52;;;2.40;82.30;;;;;;4114795;28;20055;-76
2023/11/30 09:38:38;;;;;;;15.55;10.30;;;2.30;82.20;;;;;;4114848;28;20105;-77
2023/11/30 09:40:40;;;;;;;16.42;10.60;;;2.40;82.40;;;;;;4114489;28;20480;-77
2023/11/30 09:42:42;;;;;;;18.85;10.57;;;2.40;82.40;;;;;;4114913;28;20051;-79
2023/11/30 09:44:43;;;;;;;17.15;10.95;;;2.50;82.20;;;;;;4114741;28;20074;-77
2023/11/30 09:46:45;;;;;;;18.38;9.98;;;2.50;82.40;;;;;;4114600;28;20086;-77
2023/11/30 09:48:48;;;;;;;16.80;11.10;;;2.50;82.30;;;;;;4114474;28;20538;-77
2023/11/30 09:50:50;;;;;;;15.75;10.05;;;2.50;82.10;;;;;;4113005;28;20109;-77
2023/11/30 09:52:52;;;;;;;19.45;11.05;;;2.50;82.20;;;;;;4114497;28;20459;-76
2023/11/30 09:54:57;;;;;;;20.48;11.73;;;2.60;82.30;;;;;;4115205;28;20055;-78
2023/11/30 09:56:57;;;;;;;18.13;11.80;;;2.60;82.40;;;;;;4116177;28;20086;-76
2023/11/30 09:58:59;;;;;;;25.30;13.00;;;2.60;82.30;;;;;;4118201;28;20054;-76
2023/11/30 10:01:02;;;;;;;20.83;12.88;;;2.60;82.20;;;;;;4110083;28;20116;-80
2023/11/30 10:03:05;;;;;;;21.25;11.77;;;2.60;82.40;;;;;;4109301;29;20047;-79
2023/11/30 10:05:09;;;;;;;19.33;11.68;;;2.60;82.50;;;;;;4104104;29;20061;-76
2023/11/30 10:07:11;;;;;;;20.70;12.45;;;2.60;82.10;;;;;;4102602;29;20055;-79
2023/11/30 10:09:13;;;;;;;20.48;12.43;;;2.70;82.10;;;;;;4105222;29;20055;-77
2023/11/30 10:11:15;;;;;;;18.42;11.93;;;2.70;82.00;;;;;;4112159;28;20483;-87
2023/11/30 10:13:16;;;;;;;19.02;12.02;;;2.80;81.90;;;;;;4085082;29;20095;-86
2023/11/30 10:15:20;;;;;;;19.90;11.65;;;2.80;81.90;;;;;;4100588;29;20051;-87
2023/11/30 10:17:22;;;;;;;20.48;11.57;;;2.80;81.80;;;;;;4103605;29;20130;-86
2023/11/30 10:19:24;;;;;;;20.75;11.77;;;2.80;81.80;;;;;;4102168;28;20059;-86
2023/11/30 10:21:28;;;;;;;18.23;11.27;;;2.90;81.90;;;;;;4102535;29;20051;-82
2023/11/30 10:23:29;;;;;;;19.25;11.60;;;2.90;81.70;;;;;;4104123;29;20058;-85
2023/11/30 10:25:31;;;;;;;19.95;11.77;;;2.90;81.50;;;;;;4104976;29;20047;-87
2023/11/30 10:27:36;;;;;;;21.55;12.93;;;3.00;81.50;;;;;;4103551;29;20058;-88
2023/11/30 10:29:43;;;;;;;21.58;12.00;;;3.00;81.50;;;;;;4090071;29;20058;-86
2023/11/30 10:31:49;;;;;;;20.98;12.70;;;3.00;81.60;;;;;;4106774;29;20055;-88
2023/11/30 10:33:57;;;;;;;;;;;3.00;81.40;;;;;;4106006;29;20489;-89
2023/11/30 10:36:04;;;;;;;19.05;11.82;;;3.10;81.50;;;;;;4106070;28;20031;-89
2023/11/30 10:38:08;;;;;;;21.17;12.98;;;3.10;81.30;;;;;;4106595;28;20059;-87
2023/11/30 10:40:13;;;;;;;22.80;15.73;;;3.20;81.30;;;;;;4106630;29;20055;-89
2023/11/30 10:42:17;;;;;;;23.38;15.60;;;3.20;81.20;;;;;;4087354;29;20062;-84
2023/11/30 10:44:26;;;;;;;23.45;14.93;;;3.20;81.40;;;;;;4091391;29;20055;-89
2023/11/30 10:46:30;;;;;;;20.70;13.55;;;3.30;81.40;;;;;;4113691;29;20051;-89
2023/11/30 10:48:35;;;;;;;18.77;11.93;;;3.30;81.40;;;;;;4097056;29;20091;-88
2023/11/30 10:50:37;;;;;;;18.63;12.00;;;3.30;81.40;;;;;;4117868;28;20055;-88
2023/11/30 10:52:39;;;;;;;18.40;11.30;;;3.30;81.50;;;;;;4113940;29;20081;-87
2023/11/30 10:54:49;;;;;;;18.75;11.68;;;3.30;81.50;;;;;;4104027;29;20051;-87
2023/11/30 10:56:50;;;;;;;22.30;12.13;;;3.30;81.50;;;;;;4104067;29;20497;-88
2023/11/30 10:58:52;;;;;;;16.70;11.43;;;3.30;81.70;;;;;;4086906;29;20440;-84
2023/11/30 11:00:57;;;;;;;16.83;11.68;;;3.30;81.90;;;;;;4112888;28;20070;-88
2023/11/30 11:03:07;;;;;;;19.73;11.70;;;3.30;81.80;;;;;;4118918;28;20057;-86
2023/11/30 11:05:12;;;;;;;18.70;10.93;;;3.30;81.80;;;;;;4119314;28;20051;-85
2023/11/30 11:07:15;;;;;;;19.33;12.23;;;3.40;81.90;;;;;;4118357;28;20046;-84
2023/11/30 11:09:19;;;;;;;21.40;11.90;;;3.40;81.70;;;;;;4118636;28;20050;-88
2023/11/30 11:11:24;;;;;;;19.98;12.73;;;3.40;81.60;;;;;;4118051;28;20484;-83
2023/11/30 11:13:28;;;;;;;20.20;11.55;;;3.40;81.70;;;;;;4117489;28;20481;-83
2023/11/30 11:15:31;;;;;;;20.48;12.73;;;3.40;81.70;;;;;;4118159;28;20055;-84
2023/11/30 11:17:32;;;;;;;19.95;12.57;;;3.40;81.70;;;;;;4125854;28;20067;-83
2023/11/30 11:19:39;;;;;;;20.70;12.50;;;3.40;81.80;;;;;;4125249;28;20054;-84
2023/11/30 11:21:41;;;;;;;20.50;12.65;;;3.40;81.80;;;;;;4119116;28;20370;-84
2023/11/30 11:23:43;;;;;;;22.85;12.32;;;3.40;81.80;;;;;;4118101;28;20054;-84
2023/11/30 11:25:47;;;;;;;20.88;12.88;;;3.40;81.90;;;;;;4101616;29;20137;-84
2023/11/30 11:27:51;;;;;;;20.50;12.88;;;3.50;81.80;;;;;;4118219;28;20112;-82
2023/11/30 11:29:53;;;;;;;18.40;12.30;;;3.40;81.90;;;;;;4118553;28;20051;-87
2023/11/30 11:31:58;;;;;;;18.90;12.35;;;3.40;81.80;;;;;;4117227;28;20489;-81
2023/11/30 11:34:00;;;;;;;18.00;11.68;;;3.50;81.80;;;;;;4117591;28;20117;-83
2023/11/30 11:36:02;;;;;;;19.75;12.50;;;3.50;81.60;;;;;;4100336;29;20511;-83
2023/11/30 11:38:06;;;;;;;19.35;12.18;;;3.60;81.40;;;;;;4117267;28;20058;-81
2023/11/30 11:40:08;;;;;;;19.88;11.98;;;3.60;81.40;;;;;;4116548;28;20061;-83
2023/11/30 11:42:10;;;;;;;24.33;13.68;;;3.60;81.30;;;;;;4117321;28;20047;-82
2023/11/30 11:44:14;;;;;;;20.88;13.40;;;3.60;81.60;;;;;;4117890;28;20109;-83
2023/11/30 11:46:16;;;;;;;21.90;13.27;;;3.70;81.90;;;;;;4118160;28;20116;-84
2023/11/30 11:48:18;;;;;;;19.55;12.95;;;3.70;81.90;;;;;;4117855;28;20078;-83
2023/11/30 11:50:20;;;;;;;21.23;12.85;;;3.80;82.00;;;;;;4117338;28;20057;-83
2023/11/30 11:52:25;;;;;;;19.88;12.45;;;3.80;81.60;;;;;;4117632;28;20047;-86
2023/11/30 11:54:27;;;;;;;23.77;12.80;;;3.80;81.10;;;;;;4115759;28;20054;-86
2023/11/30 11:56:28;;;;;;;20.63;12.48;;;3.90;80.90;;;;;;4100542;28;20090;-84
2023/11/30 11:58:30;;;;;;;20.15;11.93;;;3.90;80.50;;;;;;4118055;28;20451;-86
2023/11/30 12:00:34;;;;;;;21.30;12.77;;;4.00;80.00;;;;;;4110323;28;20094;-84
2023/11/30 12:02:35;;;;;;;22.45;13.85;;;3.90;80.60;;;;;;4083116;29;20187;-84
2023/11/30 12:04:36;;;;;;;22.23;13.73;;;4.00;80.90;;;;;;4101256;28;20054;-85
2023/11/30 12:06:39;;;;;;;21.02;13.75;;;4.00;81.00;;;;;;4101936;29;20055;-83
2023/11/30 12:08:42;;;;;;;22.42;13.38;;;4.00;81.10;;;;;;4105258;29;20114;-82
2023/11/30 12:10:48;;;;;;;20.98;12.50;;;4.10;80.90;;;;;;4104502;29;20500;-85
2023/11/30 12:12:51;;;;;;;21.48;13.18;;;4.10;80.70;;;;;;4102350;29;20051;-86
2023/11/30 12:14:53;;;;;;;19.38;12.50;;;4.10;80.60;;;;;;4103427;29;20227;-83
2023/11/30 12:16:56;;;;;;;22.02;13.40;;;4.10;80.60;;;;;;4105639;29;20114;-83
2023/11/30 12:18:58;;;;;;;22.67;13.85;;;4.20;80.60;;;;;;4105151;29;20070;-84
2023/11/30 12:21:00;;;;;;;22.15;13.65;;;4.10;80.70;;;;;;4093635;29;20052;-84
2023/11/30 12:23:02;;;;;;;28.45;14.52;;;4.10;80.60;;;;;;4111765;29;20078;-83
2023/11/30 12:25:04;;;;;;;20.85;13.48;;;4.10;80.60;;;;;;4112339;29;20055;-84
2023/11/30 12:27:06;;;;;;;22.90;13.30;;;4.10;80.50;;;;;;4102727;29;20155;-83
2023/11/30 12:29:09;;;;;;;20.15;13.10;;;4.10;80.40;;;;;;4100623;29;20204;-84
2023/11/30 12:31:11;;;;;;;20.50;13.27;;;4.10;80.50;;;;;;4100404;29;20059;-84
2023/11/30 12:33:15;;;;;;;25.00;14.07;;;4.20;80.60;;;;;;4100356;29;20548;-82
2023/11/30 12:35:16;;;;;;;19.88;12.52;;;4.20;80.50;;;;;;4100210;29;20098;-85
2023/11/30 12:37:18;;;;;;;23.02;13.25;;;4.20;80.40;;;;;;4100006;29;20118;-83
2023/11/30 12:39:20;;;;;;;19.88;12.70;;;4.20;80.20;;;;;;4100002;29;20541;-84
2023/11/30 12:41:22;;;;;;;20.98;13.05;;;4.30;80.20;;;;;;4099908;29;20138;-84
2023/11/30 12:43:24;;;;;;;22.98;13.35;;;4.30;80.30;;;;;;4100760;29;20055;-82
2023/11/30 12:45:27;;;;;;;25.80;14.02;;;4.30;80.40;;;;;;4100180;29;20511;-84
2023/11/30 12:47:29;;;;;;;25.23;13.93;;;4.30;80.40;;;;;;4100152;29;20164;-84
2023/11/30 12:49:32;;;;;;;21.73;13.45;;;4.30;80.10;;;;;;4100056;29;20503;-83
2023/11/30 12:51:34;;;;;;;25.50;13.75;;;4.30;79.60;;;;;;4099118;28;20135;-85
2023/11/30 12:53:38;;;;;;;25.25;14.30;;;4.40;79.60;;;;;;4099420;29;20059;-84
2023/11/30 12:55:40;;;;;;;23.27;13.57;;;4.40;79.30;;;;;;4098238;29;20078;-83
2023/11/30 12:57:42;;;;;;;23.77;13.60;;;4.40;79.70;;;;;;4082730;29;20114;-83
2023/11/30 12:59:44;;;;;;;23.08;13.18;;;4.40;79.70;;;;;;4101048;28;20062;-84
2023/11/30 13:01:47;;;;;;;20.83;12.98;;;4.30;79.40;;;;;;4116680;28;20117;-82
2023/11/30 13:03:49;;;;;;;20.58;12.95;;;4.30;79.40;;;;;;4115260;28;20058;-82
2023/11/30 13:05:52;;;;;;;19.40;12.75;;;4.40;79.50;;;;;;4115452;28;20055;-81
2023/11/30 13:07:55;;;;;;;21.83;13.57;;;4.40;79.60;;;;;;4115513;28;20087;-83
2023/11/30 13:09:56;;;;;;;22.58;13.88;;;4.40;79.50;;;;;;4115601;28;20149;-84
2023/11/30 13:11:59;;;;;;;19.83;12.85;;;4.40;79.90;;;;;;4116012;28;20101;-83
2023/11/30 13:14:01;;;;;;;21.23;12.60;;;4.40;80.10;;;;;;4116614;28;20054;-84
2023/11/30 13:16:03;;;;;;;21.23;12.32;;;4.40;79.90;;;;;;4118243;28;20057;-83
2023/11/30 13:18:06;;;;;;;20.23;11.77;;;4.40;79.80;;;;;;4118768;28;20192;-84
2023/11/30 13:20:12;;;;;;;18.98;12.13;;;4.40;79.80;;;;;;4122710;28;20078;-85
2023/11/30 13:22:15;;;;;;;20.85;12.45;;;4.40;79.80;;;;;;4120352;28;20409;-84
2023/11/30 13:24:17;;;;;;;24.42;13.73;;;4.40;79.60;;;;;;4099929;28;20051;-84
2023/11/30 13:26:20;;;;;;;21.15;13.20;;;4.40;79.90;;;;;;4083828;29;20106;-82
2023/11/30 13:28:22;;;;;;;23.70;13.43;;;4.30;80.00;;;;;;4116676;28;20062;-81
2023/11/30 13:30:24;;;;;;;23.45;13.02;;;4.40;79.90;;;;;;4099114;29;20055;-83
2023/11/30 13:32:27;;;;;;;18.58;12.07;;;4.30;79.80;;;;;;4116544;28;20105;-83
2023/11/30 13:34:29;;;;;;;21.25;12.50;;;4.30;79.90;;;;;;4116508;28;20051;-83
2023/11/30 13:36:31;;;;;;;23.08;13.27;;;4.40;80.00;;;;;;4116392;28;20476;-82
2023/11/30 13:38:34;;;;;;;20.38;12.57;;;4.40;80.10;;;;;;4115898;28;20109;-82
2023/11/30 13:40:36;;;;;;;21.80;12.50;;;4.30;80.10;;;;;;4116211;28;20053;-82
2023/11/30 13:42:38;;;;;;;20.33;12.10;;;4.30;80.20;;;;;;4115969;28;20061;-83
2023/11/30 13:44:40;;;;;;;22.73;13.27;;;4.30;80.40;;;;;;4116059;28;20046;-84
2023/11/30 13:46:42;;;;;;;21.15;13.32;;;4.30;80.60;;;;;;4115887;28;20055;-84
2023/11/30 13:48:44;;;;;;;20.50;13.18;;;4.20;81.10;;;;;;4099032;29;20051;-83
2023/11/30 13:50:47;;;;;;;21.50;12.77;;;4.20;81.30;;;;;;4115561;28;20047;-84
2023/11/30 13:52:49;;;;;;;22.15;13.27;;;4.30;80.80;;;;;;4115707;28;20054;-84
2023/11/30 13:54:53;;;;;;;20.88;12.38;;;4.30;80.80;;;;;;4114471;28;20055;-85
2023/11/30 13:56:55;;;;;;;21.13;12.50;;;4.30;81.10;;;;;;4115619;28;20061;-83
2023/11/30 13:58:58;;;;;;;22.02;12.45;;;4.30;81.70;;;;;;4098871;28;20061;-84
2023/11/30 14:01:00;;;;;;;21.23;13.13;;;4.30;81.10;;;;;;4098279;28;20063;-83
2023/11/30 14:03:02;;;;;;;18.33;12.25;;;4.30;81.10;;;;;;4115234;28;20077;-83
2023/11/30 14:05:05;;;;;;;20.65;12.48;;;4.30;81.90;;;;;;4116044;28;20051;-83
2023/11/30 14:07:07;;;;;;;18.08;11.50;;;4.30;81.30;;;;;;4116126;28;20082;-83
2023/11/30 14:09:13;;;;;;;20.08;12.73;;;4.30;81.40;;;;;;4099147;29;20051;-85
2023/11/30 14:11:16;;;;;;;18.65;12.48;;;4.30;81.60;;;;;;4099221;28;20051;-84
2023/11/30 14:13:18;;;;;;;20.75;12.25;;;4.30;81.80;;;;;;4098380;29;20059;-83
2023/11/30 14:15:21;;;;;;;21.23;11.93;;;4.30;81.70;;;;;;4115353;28;20054;-84
2023/11/30 14:17:24;;;;;;;20.08;12.40;;;4.30;81.50;;;;;;4114800;28;20058;-85
2023/11/30 14:19:26;;;;;;;19.33;12.45;;;4.30;81.70;;;;;;4114785;28;20114;-85
2023/11/30 14:21:28;;;;;;;19.15;11.82;;;4.30;82.20;;;;;;4114099;28;20082;-85
2023/11/30 14:23:30;;;;;;;22.17;12.98;;;4.30;82.60;;;;;;4114874;28;20051;-84
2023/11/30 14:25:31;;;;;;;20.30;12.50;;;4.30;82.80;;;;;;4115682;28;20078;-83
2023/11/30 14:27:35;;;;;;;22.45;13.82;;;4.30;83.10;;;;;;4120246;28;20054;-83
2023/11/30 14:29:37;;;;;;;20.92;12.82;;;4.30;83.10;;;;;;4118112;28;20055;-83
2023/11/30 14:31:39;;;;;;;21.85;13.07;;;4.20;83.50;;;;;;4116777;28;20058;-83
2023/11/30 14:33:41;;;;;;;21.10;13.82;;;4.30;83.60;;;;;;4099095;29;20051;-85
2023/11/30 14:35:43;;;;;;;20.20;12.93;;;4.30;83.40;;;;;;4115869;28;20452;-82
2023/11/30 14:37:45;;;;;;;20.50;13.27;;;4.30;83.50;;;;;;4082118;29;20052;-85
2023/11/30 14:39:47;;;;;;;19.40;12.88;;;4.30;83.60;;;;;;4114746;28;20125;-85
2023/11/30 14:41:49;;;;;;;19.95;13.23;;;4.30;83.50;;;;;;4114823;28;20117;-83
2023/11/30 14:43:52;;;;;;;21.23;13.23;;;4.30;83.70;;;;;;4114751;28;20082;-83
2023/11/30 14:45:55;;;;;;;18.52;12.63;;;4.20;83.70;;;;;;4114495;28;20101;-84
2023/11/30 14:47:58;;;;;;;21.23;13.55;;;4.30;83.80;;;;;;4115012;28;20055;-83
2023/11/30 14:50:00;;;;;;;21.35;14.35;;;4.30;83.80;;;;;;4098088;28;20058;-85
2023/11/30 14:52:02;;;;;;;21.88;13.98;;;4.30;83.90;;;;;;4114868;28;20051;-84
2023/11/30 14:54:05;;;;;;;23.50;14.27;;;4.30;84.10;;;;;;4114124;28;20097;-83
2023/11/30 14:56:08;;;;;;;22.67;14.00;;;4.30;84.40;;;;;;4114662;28;20055;-83
2023/11/30 14:58:10;;;;;;;22.60;14.32;;;4.30;84.40;;;;;;4114949;28;20483;-84
2023/11/30 15:00:20;;;;;;;21.13;13.45;;;4.30;84.50;;;;;;4114778;28;20440;-82
2023/11/30 15:02:22;;;;;;;21.38;12.77;;;4.40;84.40;;;;;;4098531;29;20097;-84
2023/11/30 15:04:24;;;;;;;18.50;12.57;;;4.30;84.20;;;;;;4098609;28;20147;-84
2023/11/30 15:06:26;;;;;;;19.80;13.00;;;4.30;83.80;;;;;;4098991;29;20125;-83
2023/11/30 15:08:28;;;;;;;18.67;12.35;;;4.40;83.40;;;;;;4100058;28;20501;-84
2023/11/30 15:10:31;;;;;;;18.83;11.95;;;4.40;83.00;;;;;;4098622;28;20102;-85
2023/11/30 15:12:33;;;;;;;17.20;12.07;;;4.40;82.90;;;;;;4098894;29;20055;-83
2023/11/30 15:14:35;;;;;;;19.17;12.32;;;4.40;83.40;;;;;;4098291;28;20501;-84
2023/11/30 15:16:39;;;;;;;19.02;12.18;;;4.40;83.90;;;;;;4100613;29;20420;-83
2023/11/30 15:18:41;;;;;;;18.17;12.38;;;4.40;84.50;;;;;;4101460;29;20055;-83
2023/11/30 15:20:43;;;;;;;18.00;12.27;;;4.40;84.30;;;;;;4101472;29;20104;-82
2023/11/30 15:22:46;;;;;;;18.38;12.77;;;4.40;84.30;;;;;;4101453;29;20055;-82
2023/11/30 15:24:48;;;;;;;19.77;12.90;;;4.50;84.10;;;;;;4101744;29;20055;-84
2023/11/30 15:26:52;;;;;;;19.90;13.10;;;4.40;84.20;;;;;;4103144;29;20087;-83
2023/11/30 15:28:54;;;;;;;28.45;18.50;;;4.50;84.30;;;;;;4106568;29;20063;-85
2023/11/30 15:30:55;;;;;;;24.30;16.88;;;4.50;84.90;;;;;;4101368;29;20047;-86
2023/11/30 15:32:58;;;;;;;26.90;17.10;;;4.50;85.00;;;;;;4101066;29;20423;-82
2023/11/30 15:34:59;;;;;;;21.88;14.73;;;4.50;85.10;;;;;;4101902;29;20055;-82
2023/11/30 15:37:04;;;;;;;22.17;13.40;;;4.50;84.80;;;;;;4102045;29;20059;-85
2023/11/30 15:39:12;;;;;;;50.67;29.55;;;4.50;84.00;;;;;;4101533;29;20090;-86
2023/11/30 15:41:14;;;;;;;42.67;26.08;;;4.40;84.60;;;;;;4102011;29;20173;-86
2023/11/30 15:43:15;;;;;;;47.60;27.63;;;4.50;85.00;;;;;;4101448;29;20047;-86
2023/11/30 15:45:17;;;;;;;28.80;17.48;;;4.50;85.40;;;;;;4103790;29;20465;-82
2023/11/30 15:47:19;;;;;;;20.55;13.48;;;4.40;85.50;;;;;;4105913;29;20093;-85
2023/11/30 15:49:23;;;;;;;20.02;13.18;;;4.50;84.50;;;;;;4105104;29;20106;-83
2023/11/30 15:51:24;;;;;;;21.35;13.95;;;4.50;84.40;;;;;;4101364;29;20062;-81
2023/11/30 15:53:27;;;;;;;33.85;19.63;;;4.40;84.00;;;;;;4107507;29;20051;-80
2023/11/30 15:55:29;;;;;;;24.83;14.63;;;4.40;84.40;;;;;;4100722;29;20523;-80
2023/11/30 15:57:31;;;;;;;19.63;13.18;;;4.40;84.60;;;;;;4099390;29;20051;-80
2023/11/30 15:59:33;;;;;;;20.67;14.15;;;4.40;84.20;;;;;;4100515;29;20058;-81
2023/11/30 16:01:35;;;;;;;20.30;12.95;;;4.40;84.30;;;;;;4110432;28;20059;-80
2023/11/30 16:03:37;;;;;;;20.48;13.70;;;4.40;84.30;;;;;;4119390;28;20467;-83
2023/11/30 16:05:40;;;;;;;19.27;12.75;;;4.40;84.00;;;;;;4119369;28;20428;-80
2023/11/30 16:07:42;;;;;;;21.45;13.38;;;4.40;83.80;;;;;;4116740;28;20440;-81
2023/11/30 16:09:44;;;;;;;19.48;12.45;;;4.40;83.60;;;;;;4115804;28;20098;-81
2023/11/30 16:11:48;;;;;;;19.17;13.13;;;4.40;83.60;;;;;;4111706;28;20137;-82
2023/11/30 16:13:50;;;;;;;18.92;11.82;;;4.50;83.60;;;;;;4116292;28;20058;-80
2023/11/30 16:15:52;;;;;;;19.35;12.63;;;4.50;83.60;;;;;;4115857;28;20046;-81
2023/11/30 16:17:54;;;;;;;20.95;13.35;;;4.40;83.90;;;;;;4116334;28;20059;-82
2023/11/30 16:19:56;;;;;;;19.50;13.32;;;4.50;84.20;;;;;;4116539;28;20146;-81
2023/11/30 16:21:59;;;;;;;19.92;13.40;;;4.50;84.50;;;;;;4116717;28;20113;-81
2023/11/30 16:24:01;;;;;;;22.23;14.30;;;4.40;84.80;;;;;;4116727;28;20058;-81
2023/11/30 16:26:04;;;;;;;23.65;14.98;;;4.40;85.20;;;;;;4116322;28;20404;-81
2023/11/30 16:28:06;;;;;;;39.80;24.35;;;4.30;85.70;;;;;;4116756;28;20408;-82
2023/11/30 16:30:10;;;;;;;82.15;43.53;;;4.30;86.10;;;;;;4115766;28;20504;-83
2023/11/30 16:32:12;;;;;;;53.92;30.00;;;4.40;86.10;;;;;;4100563;28;20047;-82